Santa Monica, California
Current Conditions -  °F | °C
As of 3:51 AM on Friday 21 Nov 2014 (Local Time) from KSMO Reporting Station
Few Clouds Few Clouds  
Wind Chill: 14°   Ceiling: Unl
Heat Index: 14°   Visibility: 10mi
Dew Point: 10°   Wind: 0mph
Humidity: 77%   Direction: NA
Pressure: 29.95"   Gusts: NA
Location:  34.01°N, 118.49°W
Report Text: KSMO 211151Z AUTO 00000KT 10SM FEW080 14/10 A2995 RMK AO2 SLP139 60000 T01390100 10178 20139 55006
Loading
Personal Weather Stations






























Interactive Weather Map New forecast layout! Learn more

10-Day Weather Forecast

Advertisements
Track Severe Weather on mobile